createdAt,value
2019-04-20T00:00:09.413Z,64
2019-04-20T00:00:54.512Z,64
2019-04-20T00:01:33.991Z,64
2019-04-20T00:02:14.166Z,64
2019-04-20T00:02:32.178Z,64
2019-04-20T00:03:09.581Z,64
2019-04-20T00:03:48.233Z,64
2019-04-20T00:04:34.164Z,65
2019-04-20T00:04:56.734Z,65
2019-04-20T00:05:31.470Z,65
2019-04-20T00:06:08.802Z,65
2019-04-20T00:06:54.306Z,65
2019-04-20T00:07:33.060Z,65
2019-04-20T00:08:07.326Z,65
2019-04-20T00:08:39.716Z,65
2019-04-20T00:09:35.235Z,65
2019-04-20T00:10:16.774Z,65
2019-04-20T00:11:00.096Z,65
2019-04-20T00:11:26.171Z,66
2019-04-20T00:12:15.439Z,65
2019-04-20T00:12:58.109Z,66
2019-04-20T00:13:33.047Z,66
2019-04-20T00:14:01.773Z,66
2019-04-20T00:14:28.812Z,66
2019-04-20T00:14:45.853Z,66
2019-04-20T00:15:20.244Z,66
2019-04-20T00:15:57.518Z,66
2019-04-20T00:16:32.476Z,66
2019-04-20T00:17:07.734Z,66
2019-04-20T00:18:01.527Z,66
2019-04-20T00:18:21.016Z,67
2019-04-20T00:19:03.935Z,67
2019-04-20T00:19:50.428Z,66
2019-04-20T00:20:27.810Z,66
2019-04-20T00:20:45.730Z,66
2019-04-20T00:21:22.535Z,66
2019-04-20T00:22:10.490Z,66
2019-04-20T00:22:48.991Z,66
2019-04-20T00:23:22.540Z,67
2019-04-20T00:23:50.090Z,66
2019-04-20T00:24:33.586Z,67
2019-04-20T00:25:10.367Z,67
2019-04-20T00:26:06.660Z,67
2019-04-20T00:26:52.887Z,67
2019-04-20T00:27:59.226Z,67
2019-04-20T00:28:15.993Z,67
2019-04-20T00:28:50.671Z,67
2019-04-20T00:29:24.730Z,67
2019-04-20T00:29:54.102Z,67
2019-04-20T00:30:46.530Z,67
2019-04-20T00:31:26.602Z,67
2019-04-20T00:31:52.178Z,67
2019-04-20T00:32:12.260Z,68
2019-04-20T00:32:49.881Z,68
2019-04-20T00:33:18.040Z,68
2019-04-20T00:33:50.321Z,68
2019-04-20T00:34:24.318Z,68
2019-04-20T00:34:45.065Z,67
2019-04-20T00:35:08.459Z,67
2019-04-20T00:35:44.565Z,67
2019-04-20T00:36:20.616Z,67
2019-04-20T00:36:57.853Z,67
2019-04-20T00:37:33.607Z,67
2019-04-20T00:38:09.748Z,67
2019-04-20T00:38:59.461Z,67
2019-04-20T00:39:22.043Z,67
2019-04-20T00:39:59.275Z,67
2019-04-20T00:40:32.261Z,67
2019-04-20T00:41:16.852Z,67
2019-04-20T00:42:02.260Z,67
2019-04-20T00:42:42.147Z,67
2019-04-20T00:43:01.435Z,67
2019-04-20T00:43:40.774Z,67
2019-04-20T00:44:28.492Z,67
2019-04-20T00:45:05.533Z,67
2019-04-20T00:45:35.020Z,67
2019-04-20T00:46:24.857Z,67
2019-04-20T00:47:11.908Z,67
2019-04-20T00:47:45.300Z,67
2019-04-20T00:48:06.694Z,67
2019-04-20T00:48:55.703Z,67
2019-04-20T00:49:20.481Z,67
2019-04-20T00:50:16.421Z,67
2019-04-20T00:50:59.138Z,67
2019-04-20T00:51:34.764Z,67
2019-04-20T00:52:29.756Z,67
2019-04-20T00:52:58.930Z,67
2019-04-20T00:53:13.203Z,67
2019-04-20T00:53:37.946Z,67
2019-04-20T00:53:55.816Z,67
2019-04-20T00:54:20.649Z,67
2019-04-20T00:54:56.374Z,67
2019-04-20T00:55:33.501Z,67
2019-04-20T00:56:08.083Z,67
2019-04-20T00:56:44.216Z,68
2019-04-20T00:57:51.736Z,67
2019-04-20T00:58:25.869Z,68
2019-04-20T00:59:12.856Z,68
2019-04-20T01:00:04.485Z,68
2019-04-20T01:00:30.894Z,68
2019-04-20T01:02:08.753Z,68
2019-04-20T01:02:12.460Z,68
2019-04-20T01:02:43.211Z,68
2019-04-20T01:03:33.693Z,68
2019-04-20T01:06:06.129Z,68
2019-04-20T01:06:46.172Z,68
2019-04-20T01:07:04.490Z,68
2019-04-20T01:07:34.538Z,68
2019-04-20T01:07:56.288Z,68
2019-04-20T01:08:12.588Z,68
2019-04-20T01:08:44.501Z,68
2019-04-20T01:09:20.515Z,68
2019-04-20T01:09:56.510Z,68
2019-04-20T01:10:50.087Z,68
2019-04-20T01:11:08.481Z,68
2019-04-20T01:11:51.297Z,68
2019-04-20T01:12:33.711Z,68
2019-04-20T01:13:15.505Z,68
2019-04-20T01:13:48.674Z,68
2019-04-20T01:14:17.086Z,68
2019-04-20T01:15:02.669Z,68
2019-04-20T01:15:55.037Z,69
2019-04-20T01:16:29.181Z,68
2019-04-20T01:16:54.353Z,69
2019-04-20T01:17:13.746Z,69
2019-04-20T01:17:43.706Z,69
2019-04-20T01:18:19.181Z,69
2019-04-20T01:18:55.165Z,69
2019-04-20T01:19:31.123Z,69
2019-04-20T01:20:07.263Z,69
2019-04-20T01:20:43.603Z,69
2019-04-20T01:21:31.389Z,69
2019-04-20T01:22:12.570Z,69
2019-04-20T01:22:58.720Z,69
2019-04-20T01:23:21.226Z,69
2019-04-20T01:24:02.786Z,69
2019-04-20T01:24:36.952Z,69
2019-04-20T01:25:09.518Z,69
2019-04-20T01:25:44.108Z,69
2019-04-20T01:26:19.538Z,69
2019-04-20T01:26:58.787Z,69
2019-04-20T01:28:11.508Z,70
2019-04-20T01:28:46.211Z,70
2019-04-20T01:29:16.590Z,70
2019-04-20T01:29:32.218Z,70
2019-04-20T01:30:12.891Z,70
2019-04-20T01:30:44.369Z,70
2019-04-20T01:31:29.192Z,70
2019-04-20T01:32:18.314Z,70
2019-04-20T01:32:49.899Z,71
2019-04-20T01:33:24.980Z,71
2019-04-20T01:33:58.389Z,71
2019-04-20T01:34:35.587Z,71
2019-04-20T01:35:07.537Z,71
2019-04-20T01:35:56.502Z,71
2019-04-20T01:36:45.555Z,71
2019-04-20T01:37:09.163Z,71
2019-04-20T01:37:42.412Z,72
2019-04-20T01:38:30.220Z,72
2019-04-20T01:38:56.133Z,72
2019-04-20T01:39:23.600Z,72
2019-04-20T01:39:44.187Z,72
2019-04-20T01:40:06.466Z,72
2019-04-20T01:40:33.393Z,72
2019-04-20T01:41:08.050Z,73
2019-04-20T01:41:45.132Z,73
2019-04-20T01:42:19.743Z,73
2019-04-20T01:42:56.995Z,73
2019-04-20T01:43:31.751Z,73
2019-04-20T01:44:07.667Z,73
2019-04-20T01:44:55.007Z,73
2019-04-20T01:45:37.610Z,73
2019-04-20T01:46:15.464Z,73
2019-04-20T01:46:39.034Z,73
2019-04-20T01:47:13.276Z,73
2019-04-20T01:47:57.731Z,73
2019-04-20T01:48:35.029Z,73
2019-04-20T01:49:05.563Z,73
2019-04-20T01:49:38.916Z,73
2019-04-20T01:50:28.324Z,73
2019-04-20T01:51:11.707Z,73
2019-04-20T01:51:43.872Z,73
2019-04-20T01:52:19.940Z,74
2019-04-20T01:53:12.257Z,73
2019-04-20T01:53:56.449Z,73
2019-04-20T01:54:36.260Z,73
2019-04-20T01:55:22.596Z,74
2019-04-20T01:55:45.344Z,74
2019-04-20T01:56:27.188Z,74
2019-04-20T01:56:57.915Z,74
2019-04-20T01:57:15.427Z,74
2019-04-20T01:58:11.253Z,74
2019-04-20T01:58:58.035Z,75
2019-04-20T01:59:45.859Z,75
2019-04-20T02:00:15.745Z,75
2019-04-20T02:00:39.890Z,75
2019-04-20T02:01:09.057Z,75
2019-04-20T02:01:42.430Z,75
2019-04-20T02:02:19.908Z,75
2019-04-20T02:03:01.968Z,75
2019-04-20T02:03:36.817Z,75
2019-04-20T02:04:02.809Z,75
2019-04-20T02:04:45.865Z,75
2019-04-20T02:05:27.937Z,75
2019-04-20T02:06:08.203Z,76
2019-04-20T02:06:27.214Z,76
2019-04-20T02:07:05.394Z,76
2019-04-20T02:07:47.465Z,76
2019-04-20T02:08:24.366Z,76
2019-04-20T02:08:44.603Z,75
2019-04-20T02:09:29.573Z,75
2019-04-20T02:10:09.757Z,75
2019-04-20T02:10:52.192Z,75
2019-04-20T02:11:25.908Z,75
2019-04-20T02:11:52.087Z,75
2019-04-20T02:12:33.889Z,75
2019-04-20T02:13:06.139Z,74
2019-04-20T02:13:49.763Z,74
2019-04-20T02:14:14.226Z,74
2019-04-20T02:15:00.989Z,74
2019-04-20T02:15:45.045Z,74
2019-04-20T02:16:22.475Z,74
2019-04-20T02:16:52.845Z,74
2019-04-20T02:17:37.303Z,74
2019-04-20T02:18:26.840Z,73
2019-04-20T02:19:13.038Z,73
2019-04-20T02:19:34.318Z,73
2019-04-20T02:20:32.879Z,73
2019-04-20T02:21:04.724Z,73
2019-04-20T02:21:42.074Z,73
2019-04-20T02:22:02.303Z,73
2019-04-20T02:22:46.150Z,73
2019-04-20T02:23:20.836Z,73
2019-04-20T02:23:38.395Z,73
2019-04-20T02:24:03.941Z,72
2019-04-20T02:24:21.547Z,72
2019-04-20T02:24:57.042Z,72
2019-04-20T02:25:33.162Z,72
2019-04-20T02:26:08.940Z,72
2019-04-20T02:26:44.814Z,72
2019-04-20T02:27:46.856Z,72
2019-04-20T02:28:53.435Z,72
2019-04-20T02:29:44.139Z,73
2019-04-20T02:31:22.797Z,73
2019-04-20T02:32:22.326Z,73
2019-04-20T02:32:54.959Z,73
2019-04-20T02:34:31.355Z,73
2019-04-20T02:34:31.358Z,73
2019-04-20T02:35:15.723Z,73
2019-04-20T02:36:18.774Z,73
2019-04-20T02:37:07.475Z,74
2019-04-20T02:37:13.292Z,74
2019-04-20T02:39:50.677Z,74
2019-04-20T02:40:50.143Z,74
2019-04-20T02:41:43.820Z,75
2019-04-20T02:41:49.526Z,74
2019-04-20T02:43:05.200Z,75
2019-04-20T02:43:05.208Z,75
2019-04-20T02:44:21.173Z,75
2019-04-20T02:44:58.494Z,75
2019-04-20T02:46:05.780Z,75
2019-04-20T02:46:14.572Z,75
2019-04-20T02:47:52.723Z,75
2019-04-20T02:48:00.664Z,75
2019-04-20T02:48:21.455Z,75
2019-04-20T02:49:19.243Z,75
2019-04-20T02:50:18.822Z,75
2019-04-20T02:50:35.940Z,75
2019-04-20T02:51:32.805Z,75
2019-04-20T02:51:40.686Z,75
2019-04-20T02:52:26.812Z,75
2019-04-20T02:52:55.715Z,76
2019-04-20T02:54:14.780Z,76
2019-04-20T02:54:14.790Z,75
2019-04-20T02:55:14.175Z,76
2019-04-20T02:55:55.174Z,76
2019-04-20T02:56:38.932Z,76
2019-04-20T02:57:39.338Z,76
2019-04-20T02:58:22.657Z,76
2019-04-20T02:58:49.734Z,76
2019-04-20T02:59:58.575Z,76
2019-04-20T03:00:11.900Z,76
2019-04-20T03:00:17.652Z,76
2019-04-20T03:00:52.074Z,76
2019-04-20T03:01:19.956Z,76
2019-04-20T03:01:54.558Z,76
2019-04-20T03:02:34.344Z,76
2019-04-20T03:02:48.501Z,76
2019-04-20T03:03:22.458Z,77
2019-04-20T03:03:44.861Z,77
2019-04-20T03:04:17.225Z,77
2019-04-20T03:05:06.225Z,77
2019-04-20T03:05:41.105Z,77
2019-04-20T03:06:22.664Z,77
2019-04-20T03:06:58.221Z,77
2019-04-20T03:07:37.829Z,77
2019-04-20T03:08:35.425Z,77
2019-04-20T03:09:14.948Z,77
2019-04-20T03:09:36.046Z,77
2019-04-20T03:10:10.565Z,77
2019-04-20T03:11:07.847Z,77
2019-04-20T03:12:32.700Z,77
2019-04-20T03:12:42.574Z,78
2019-04-20T03:13:14.038Z,78
2019-04-20T03:14:34.545Z,78
2019-04-20T03:14:54.939Z,78
2019-04-20T03:15:37.353Z,78
2019-04-20T03:16:24.037Z,78
2019-04-20T03:16:54.693Z,78
2019-04-20T03:18:08.676Z,78
2019-04-20T03:18:39.503Z,78
2019-04-20T03:19:02.340Z,78
2019-04-20T03:21:24.419Z,78
2019-04-20T03:21:51.153Z,78
2019-04-20T03:23:29.567Z,78
2019-04-20T03:24:30.867Z,78
2019-04-20T03:25:11.030Z,78
2019-04-20T03:25:29.466Z,78
2019-04-20T03:26:59.307Z,78
2019-04-20T03:27:40.860Z,78
2019-04-20T03:28:13.758Z,78
2019-04-20T03:29:00.961Z,78
2019-04-20T03:29:32.881Z,78
2019-04-20T03:30:00.357Z,78
2019-04-20T03:31:14.985Z,79
2019-04-20T03:33:30.625Z,79
2019-04-20T03:33:48.875Z,79
2019-04-20T03:34:12.777Z,79
2019-04-20T03:35:11.858Z,79
2019-04-20T03:35:11.860Z,79
2019-04-20T03:35:40.205Z,79
2019-04-20T03:36:33.371Z,79
2019-04-20T03:36:52.906Z,79
2019-04-20T03:37:36.174Z,79
2019-04-20T03:38:26.066Z,79
2019-04-20T03:39:08.231Z,79
2019-04-20T03:39:35.835Z,79
2019-04-20T03:40:12.421Z,80
2019-04-20T03:40:45.089Z,79
2019-04-20T03:41:11.613Z,79
2019-04-20T03:41:36.575Z,79
2019-04-20T03:41:55.658Z,79
2019-04-20T03:42:20.703Z,80
2019-04-20T03:42:56.655Z,79
2019-04-20T03:43:31.366Z,79
2019-04-20T03:44:22.484Z,80
2019-04-20T03:45:04.013Z,80
2019-04-20T03:45:29.445Z,80
2019-04-20T03:46:12.534Z,80
2019-04-20T03:46:57.303Z,80
2019-04-20T03:47:30.112Z,80
2019-04-20T03:48:58.427Z,80
2019-04-20T03:49:59.399Z,80
2019-04-20T03:50:40.691Z,80
2019-04-20T03:51:23.430Z,80
2019-04-20T03:52:27.286Z,80
2019-04-20T03:54:13.034Z,80
2019-04-20T03:54:34.270Z,80
2019-04-20T03:54:58.338Z,80
2019-04-20T03:55:39.274Z,80
2019-04-20T03:57:57.025Z,80
2019-04-20T03:58:23.621Z,81
2019-04-20T03:58:50.146Z,81
2019-04-20T03:59:18.480Z,81
2019-04-20T04:00:16.034Z,81
2019-04-20T04:00:26.121Z,81
2019-04-20T04:01:16.114Z,81
2019-04-20T04:02:37.328Z,81
2019-04-20T04:03:19.536Z,81
2019-04-20T04:04:33.455Z,81
2019-04-20T04:04:58.628Z,81
2019-04-20T04:05:23.448Z,81
2019-04-20T04:05:50.422Z,81
2019-04-20T04:06:17.424Z,81
2019-04-20T04:06:49.863Z,81
2019-04-20T04:07:15.244Z,81
2019-04-20T04:07:57.989Z,81
2019-04-20T04:08:39.345Z,81
2019-04-20T04:09:25.567Z,81
2019-04-20T04:10:04.443Z,81
2019-04-20T04:10:47.529Z,81
2019-04-20T04:11:25.913Z,81
2019-04-20T04:11:54.540Z,81
2019-04-20T04:12:20.258Z,81
2019-04-20T04:12:40.207Z,81
2019-04-20T04:12:56.709Z,81
2019-04-20T04:13:32.033Z,81
2019-04-20T04:14:07.704Z,81
2019-04-20T04:14:43.385Z,82
2019-04-20T04:15:20.635Z,82
2019-04-20T04:16:11.333Z,82
2019-04-20T04:16:52.948Z,82
2019-04-20T04:17:18.922Z,82
2019-04-20T04:17:49.832Z,82
2019-04-20T04:18:42.428Z,82
2019-04-20T04:19:25.085Z,82
2019-04-20T04:19:51.048Z,82
2019-04-20T04:20:19.639Z,82
2019-04-20T04:21:05.181Z,82
2019-04-20T04:21:58.007Z,82
2019-04-20T04:23:58.535Z,82
2019-04-20T04:24:29.009Z,82
2019-04-20T04:24:56.850Z,82
2019-04-20T04:25:34.079Z,82
2019-04-20T04:26:08.346Z,82
2019-04-20T04:26:51.020Z,82
2019-04-20T04:27:40.019Z,82
2019-04-20T04:28:10.454Z,82
2019-04-20T04:28:43.162Z,82
2019-04-20T04:30:14.041Z,82
2019-04-20T04:30:39.871Z,83
2019-04-20T04:31:20.086Z,82
2019-04-20T04:32:05.212Z,83
2019-04-20T04:33:31.987Z,83
2019-04-20T04:33:57.766Z,83
2019-04-20T04:34:07.059Z,83
2019-04-20T04:34:22.434Z,83
2019-04-20T04:34:42.867Z,83
2019-04-20T04:35:16.453Z,83
2019-04-20T04:35:56.362Z,83
2019-04-20T04:36:29.908Z,83
2019-04-20T04:37:10.264Z,83
2019-04-20T04:38:05.645Z,83
2019-04-20T04:38:31.403Z,83
2019-04-20T04:39:52.696Z,83
2019-04-20T04:40:39.014Z,83
2019-04-20T04:41:01.730Z,83
2019-04-20T04:41:39.468Z,83
2019-04-20T04:43:36.856Z,83
2019-04-20T04:43:53.162Z,83
2019-04-20T04:44:23.495Z,83
2019-04-20T04:44:43.173Z,83
2019-04-20T04:45:07.448Z,83
2019-04-20T04:45:30.413Z,83
2019-04-20T04:45:57.110Z,83
2019-04-20T04:46:53.836Z,83
2019-04-20T04:47:14.963Z,83
2019-04-20T04:47:43.469Z,83
2019-04-20T04:48:35.491Z,83
2019-04-20T04:49:24.702Z,83
2019-04-20T04:49:44.413Z,83
2019-04-20T04:50:23.520Z,83
2019-04-20T04:51:03.090Z,83
2019-04-20T04:51:47.399Z,83
2019-04-20T04:52:15.995Z,83
2019-04-20T04:53:04.413Z,83
2019-04-20T04:53:47.403Z,83
2019-04-20T04:54:21.482Z,83
2019-04-20T04:54:50.250Z,83
2019-04-20T04:55:32.649Z,83
2019-04-20T04:56:00.154Z,83
2019-04-20T04:56:20.421Z,83
2019-04-20T04:56:44.620Z,83
2019-04-20T04:57:20.613Z,83
2019-04-20T04:57:56.354Z,83
2019-04-20T04:58:33.678Z,83
2019-04-20T04:59:08.531Z,83
2019-04-20T04:59:44.479Z,83
2019-04-20T05:00:32.273Z,83
2019-04-20T05:01:16.369Z,83
2019-04-20T05:01:38.654Z,82
2019-04-20T05:02:09.590Z,82
2019-04-20T05:03:03.777Z,81
2019-04-20T05:04:24.626Z,81
2019-04-20T05:05:03.845Z,81
2019-04-20T05:05:40.939Z,81
2019-04-20T05:06:29.789Z,80
2019-04-20T05:07:02.399Z,79
2019-04-20T05:07:43.326Z,79
2019-04-20T05:08:12.666Z,78
2019-04-20T05:08:34.351Z,78
2019-04-20T05:09:00.681Z,77
2019-04-20T05:09:23.836Z,77
2019-04-20T05:09:55.457Z,76
2019-04-20T05:10:31.357Z,76
2019-04-20T05:11:08.875Z,76
2019-04-20T05:11:44.519Z,75
2019-04-20T05:12:32.026Z,75
2019-04-20T05:12:56.569Z,74
2019-04-20T05:13:56.544Z,74
2019-04-20T05:14:26.110Z,74
2019-04-20T05:15:13.075Z,74
2019-04-20T05:16:00.058Z,73
2019-04-20T05:16:44.918Z,73
2019-04-20T05:19:36.344Z,72
2019-04-20T05:19:40.762Z,71
2019-04-20T05:20:33.690Z,70
2019-04-20T05:22:09.128Z,70
2019-04-20T05:23:03.673Z,70
2019-04-20T05:23:20.355Z,70
2019-04-20T05:23:50.758Z,69
2019-04-20T05:24:22.488Z,69
2019-04-20T05:25:24.998Z,69
2019-04-20T05:25:30.761Z,69
2019-04-20T05:26:42.221Z,69
2019-04-20T05:27:38.997Z,69
2019-04-20T05:28:20.106Z,69
2019-04-20T05:28:40.193Z,69
2019-04-20T05:29:01.068Z,69
2019-04-20T05:29:29.907Z,68
2019-04-20T05:29:45.009Z,68
2019-04-20T05:30:20.436Z,68
2019-04-20T05:31:06.307Z,68
2019-04-20T05:31:56.189Z,67
2019-04-20T05:32:35.648Z,67
2019-04-20T05:33:02.951Z,67
2019-04-20T05:34:19.795Z,67
2019-04-20T05:34:52.222Z,67
2019-04-20T05:35:26.263Z,67
2019-04-20T05:36:27.863Z,66
2019-04-20T05:36:54.040Z,66
2019-04-20T05:38:41.165Z,65
2019-04-20T05:38:54.103Z,65
2019-04-20T05:39:21.164Z,64
2019-04-20T05:41:16.462Z,64
2019-04-20T05:41:45.085Z,64
2019-04-20T05:42:23.004Z,64
2019-04-20T05:42:58.993Z,63
2019-04-20T05:43:20.371Z,63
2019-04-20T05:43:59.045Z,63
2019-04-20T05:44:40.796Z,63
2019-04-20T05:45:20.410Z,62
2019-04-20T05:45:49.836Z,62
2019-04-20T05:46:26.063Z,62
2019-04-20T05:47:05.334Z,62
2019-04-20T05:47:42.727Z,62
2019-04-20T05:48:16.235Z,62
2019-04-20T05:48:56.006Z,62
2019-04-20T05:49:39.631Z,62
2019-04-20T05:50:04.820Z,62
2019-04-20T05:50:36.155Z,62
2019-04-20T05:51:29.289Z,62
2019-04-20T05:51:59.665Z,62
2019-04-20T05:53:19.077Z,61
2019-04-20T05:53:38.302Z,61
2019-04-20T05:54:18.854Z,61
2019-04-20T05:55:24.883Z,61
2019-04-20T05:56:08.269Z,61
2019-04-20T05:56:49.938Z,61
2019-04-20T05:57:41.449Z,60
2019-04-20T05:58:32.556Z,60
2019-04-20T05:59:14.810Z,59
2019-04-20T05:59:50.760Z,59
2019-04-20T06:00:40.040Z,59
2019-04-20T06:01:00.062Z,59
2019-04-20T06:01:45.089Z,59
2019-04-20T06:02:22.459Z,59
2019-04-20T06:03:20.144Z,58
2019-04-20T06:03:53.736Z,58
2019-04-20T06:05:34.502Z,57
2019-04-20T06:06:59.421Z,56
2019-04-20T06:07:41.870Z,57
2019-04-20T06:09:15.486Z,57
2019-04-20T06:09:33.331Z,56
2019-04-20T06:09:59.272Z,56
2019-04-20T06:10:49.258Z,56
2019-04-20T06:12:07.339Z,56
2019-04-20T06:12:19.627Z,56
2019-04-20T06:13:06.155Z,56
2019-04-20T06:13:54.145Z,56
2019-04-20T06:14:15.112Z,56
2019-04-20T06:15:07.877Z,56
2019-04-20T06:16:12.726Z,56
2019-04-20T06:17:08.658Z,55
2019-04-20T06:17:52.593Z,55
2019-04-20T06:18:23.961Z,55
2019-04-20T06:18:39.942Z,55
2019-04-20T06:19:39.078Z,55
2019-04-20T06:20:26.617Z,54
2019-04-20T06:20:40.910Z,58
2019-04-20T06:21:19.406Z,58
2019-04-20T06:22:09.871Z,58
2019-04-20T06:22:54.474Z,58
2019-04-20T06:24:16.596Z,58
2019-04-20T06:24:16.596Z,57
2019-04-20T06:25:21.683Z,57
2019-04-20T06:27:34.024Z,57
2019-04-20T06:28:01.771Z,57
2019-04-20T06:28:38.614Z,57
2019-04-20T06:28:42.290Z,57
2019-04-20T06:29:40.711Z,57
2019-04-20T06:30:05.523Z,57
2019-04-20T06:30:46.773Z,57
2019-04-20T06:31:35.164Z,56
2019-04-20T06:32:10.399Z,56
2019-04-20T06:34:32.690Z,57
2019-04-20T06:35:01.259Z,56
2019-04-20T06:35:18.537Z,56
2019-04-20T06:36:49.499Z,55
2019-04-20T06:37:00.385Z,55
2019-04-20T06:37:15.743Z,54
2019-04-20T06:38:42.096Z,54
2019-04-20T06:39:19.824Z,54
2019-04-20T06:39:54.177Z,55
2019-04-20T06:40:53.812Z,54
2019-04-20T06:41:50.338Z,54
2019-04-20T06:42:06.420Z,55
2019-04-20T06:42:27.524Z,54
2019-04-20T06:43:45.661Z,54
2019-04-20T06:44:27.421Z,54
2019-04-20T06:44:56.696Z,54
2019-04-20T06:45:32.938Z,54
2019-04-20T06:47:02.587Z,54
2019-04-20T06:47:29.033Z,54
2019-04-20T06:47:38.670Z,54
2019-04-20T06:48:45.702Z,54
2019-04-20T06:49:22.202Z,54
2019-04-20T06:50:01.115Z,54
2019-04-20T06:50:06.113Z,54
2019-04-20T06:50:48.142Z,54
2019-04-20T06:51:18.587Z,54
2019-04-20T06:51:47.221Z,54
2019-04-20T06:52:45.136Z,54
2019-04-20T06:53:36.220Z,54
2019-04-20T06:53:52.375Z,54
2019-04-20T06:54:10.286Z,54
2019-04-20T06:54:53.584Z,54
2019-04-20T06:55:19.434Z,54
2019-04-20T06:56:15.365Z,54
2019-04-20T06:57:59.629Z,55
2019-04-20T06:59:03.513Z,54
2019-04-20T06:59:19.469Z,54
2019-04-20T07:00:15.218Z,53
2019-04-20T07:01:05.450Z,53
2019-04-20T07:01:56.002Z,53
2019-04-20T07:02:35.388Z,53
2019-04-20T07:02:58.807Z,52
2019-04-20T07:04:55.299Z,52
2019-04-20T07:05:11.656Z,52
2019-04-20T07:05:30.057Z,52
2019-04-20T07:06:05.911Z,53
2019-04-20T07:06:50.065Z,52
2019-04-20T07:07:56.018Z,53
2019-04-20T07:08:08.067Z,53
2019-04-20T07:09:13.730Z,53
2019-04-20T07:09:52.339Z,53
2019-04-20T07:10:13.160Z,53
2019-04-20T07:10:57.672Z,53
2019-04-20T07:11:33.900Z,53
2019-04-20T07:12:22.484Z,53
2019-04-20T07:12:55.062Z,54
2019-04-20T07:13:17.506Z,54
2019-04-20T07:13:46.726Z,54
2019-04-20T07:14:09.850Z,54
2019-04-20T07:14:55.165Z,54
2019-04-20T07:15:46.108Z,53
2019-04-20T07:17:17.501Z,52
2019-04-20T07:18:15.512Z,52
2019-04-20T07:18:15.514Z,52
2019-04-20T07:19:06.020Z,52
2019-04-20T07:19:12.698Z,52
2019-04-20T07:20:15.304Z,52
2019-04-20T07:20:55.205Z,52
2019-04-20T07:21:51.665Z,52
2019-04-20T07:22:45.610Z,52
2019-04-20T07:22:50.879Z,51
2019-04-20T07:23:26.309Z,52
2019-04-20T07:24:23.556Z,51
2019-04-20T07:24:40.108Z,51
2019-04-20T07:25:18.554Z,51
2019-04-20T07:25:54.039Z,50
2019-04-20T07:26:01.708Z,51
2019-04-20T07:26:48.988Z,50
2019-04-20T07:27:34.828Z,50
2019-04-20T07:28:16.962Z,49
2019-04-20T07:29:06.626Z,49
2019-04-20T07:30:07.252Z,50
2019-04-20T07:30:40.192Z,49
2019-04-20T07:31:29.124Z,49
2019-04-20T07:32:09.659Z,49
2019-04-20T07:33:08.379Z,49
2019-04-20T07:33:56.615Z,49
2019-04-20T07:34:15.464Z,49
2019-04-20T07:34:38.364Z,49
2019-04-20T07:35:24.400Z,48
2019-04-20T07:35:55.745Z,48
2019-04-20T07:38:30.549Z,48
2019-04-20T07:39:06.950Z,47
2019-04-20T07:39:40.009Z,48
2019-04-20T07:40:14.937Z,48
2019-04-20T07:41:20.175Z,48
2019-04-20T07:42:28.293Z,48
2019-04-20T07:43:02.388Z,47
2019-04-20T07:43:38.287Z,48
2019-04-20T07:44:40.969Z,48
2019-04-20T07:45:25.737Z,49
2019-04-20T07:45:41.180Z,47
2019-04-20T07:46:20.422Z,47
2019-04-20T07:47:21.630Z,47
2019-04-20T07:47:45.453Z,48
2019-04-20T07:48:14.847Z,48
2019-04-20T07:48:36.104Z,48
2019-04-20T07:49:07.160Z,47
2019-04-20T07:49:45.526Z,47
2019-04-20T07:50:16.966Z,47
2019-04-20T07:50:40.282Z,47
2019-04-20T07:51:11.888Z,46
2019-04-20T07:51:32.017Z,46
2019-04-20T07:51:51.023Z,45
2019-04-20T07:52:56.235Z,45
2019-04-20T07:53:40.108Z,45
2019-04-20T07:55:17.068Z,46
2019-04-20T07:55:57.804Z,46
2019-04-20T07:56:30.236Z,46
2019-04-20T07:56:58.398Z,46
2019-04-20T07:57:14.202Z,45
2019-04-20T07:58:01.224Z,45
2019-04-20T07:58:22.400Z,46
2019-04-20T07:58:43.978Z,45
2019-04-20T07:59:34.118Z,46
2019-04-20T08:01:14.064Z,45
2019-04-20T08:02:23.305Z,45
2019-04-20T08:03:43.765Z,44
2019-04-20T08:05:07.892Z,44
2019-04-20T08:05:33.237Z,44
2019-04-20T08:06:01.054Z,43
2019-04-20T08:06:36.618Z,44
2019-04-20T08:07:01.992Z,44
2019-04-20T08:07:53.166Z,44
2019-04-20T08:08:43.412Z,44
2019-04-20T08:09:18.973Z,43
2019-04-20T08:09:43.744Z,43
2019-04-20T08:10:06.143Z,43
2019-04-20T08:10:58.428Z,43
2019-04-20T08:11:37.795Z,44
2019-04-20T08:14:17.893Z,44
2019-04-20T08:14:17.897Z,44
2019-04-20T08:16:00.307Z,44
2019-04-20T08:16:22.682Z,44
2019-04-20T08:18:06.140Z,43
2019-04-20T08:18:13.428Z,43
2019-04-20T08:18:25.738Z,43
2019-04-20T08:19:21.756Z,42
2019-04-20T08:19:50.701Z,42
2019-04-20T08:20:19.842Z,42
2019-04-20T08:20:57.474Z,43
2019-04-20T08:21:47.148Z,42
2019-04-20T08:22:33.218Z,41
2019-04-20T08:23:04.511Z,41
2019-04-20T08:23:33.326Z,41
2019-04-20T08:24:00.814Z,41
2019-04-20T08:24:16.868Z,41
2019-04-20T08:25:01.074Z,40
2019-04-20T08:25:27.471Z,41
2019-04-20T08:26:01.386Z,40
2019-04-20T08:26:22.925Z,41
2019-04-20T08:26:52.819Z,41
2019-04-20T08:27:16.189Z,41
2019-04-20T08:27:44.225Z,41
2019-04-20T08:28:44.575Z,40
2019-04-20T08:29:21.339Z,40
2019-04-20T08:30:13.243Z,39
2019-04-20T08:30:59.278Z,39
2019-04-20T08:31:32.147Z,39
2019-04-20T08:32:50.464Z,39
2019-04-20T08:33:30.719Z,39
2019-04-20T08:34:47.314Z,39
2019-04-20T08:36:16.097Z,39
2019-04-20T08:36:50.711Z,39
2019-04-20T08:37:16.900Z,40
2019-04-20T08:37:38.415Z,40
2019-04-20T08:39:19.793Z,39
2019-04-20T08:39:44.613Z,39
2019-04-20T08:40:06.539Z,39
2019-04-20T08:40:25.240Z,39
2019-04-20T08:40:53.094Z,39
2019-04-20T08:41:16.413Z,39
2019-04-20T08:42:05.513Z,39
2019-04-20T08:42:27.571Z,38
2019-04-20T08:43:52.992Z,39
2019-04-20T08:44:19.998Z,39
2019-04-20T08:45:23.395Z,40
2019-04-20T08:45:46.466Z,40
2019-04-20T08:46:20.252Z,40
2019-04-20T08:47:44.097Z,40
2019-04-20T08:48:02.594Z,40
2019-04-20T08:48:32.684Z,40
2019-04-20T08:50:40.962Z,41
2019-04-20T08:50:50.321Z,41
2019-04-20T08:51:18.969Z,40
2019-04-20T08:52:46.331Z,40
2019-04-20T08:53:14.390Z,40
2019-04-20T08:53:30.552Z,40
2019-04-20T08:54:02.084Z,40
2019-04-20T08:54:25.906Z,40
2019-04-20T08:55:14.385Z,40
2019-04-20T08:55:48.643Z,41
2019-04-20T08:56:13.872Z,41
2019-04-20T08:56:41.443Z,41
2019-04-20T08:56:59.674Z,41
2019-04-20T08:57:20.484Z,41
2019-04-20T08:57:56.755Z,40
2019-04-20T08:58:32.109Z,40
2019-04-20T08:59:07.444Z,40
2019-04-20T08:59:51.025Z,39
2019-04-20T09:00:38.418Z,39
2019-04-20T09:01:08.399Z,39
2019-04-20T09:01:39.059Z,40
2019-04-20T09:02:18.719Z,39
2019-04-20T09:03:07.983Z,39
2019-04-20T09:03:49.511Z,40
2019-04-20T09:04:19.888Z,40
2019-04-20T09:04:56.831Z,40
2019-04-20T09:05:42.236Z,40
2019-04-20T09:06:15.166Z,40
2019-04-20T09:07:03.793Z,40
2019-04-20T09:07:21.627Z,39
2019-04-20T09:08:02.272Z,39
2019-04-20T09:08:27.963Z,40
2019-04-20T09:09:37.423Z,40
2019-04-20T09:10:42.045Z,40
2019-04-20T09:11:05.230Z,40
2019-04-20T09:11:28.471Z,40
2019-04-20T09:12:05.754Z,40
2019-04-20T09:12:35.340Z,39
2019-04-20T09:13:07.987Z,39
2019-04-20T09:13:31.928Z,40
2019-04-20T09:13:54.931Z,40
2019-04-20T09:14:12.116Z,40
2019-04-20T09:14:46.239Z,41
2019-04-20T09:15:20.754Z,41
2019-04-20T09:15:56.176Z,41
2019-04-20T09:16:53.341Z,42
2019-04-20T09:17:27.027Z,42
2019-04-20T09:18:01.834Z,41
2019-04-20T09:18:47.136Z,40
2019-04-20T09:19:12.627Z,41
2019-04-20T09:20:02.496Z,41
2019-04-20T09:20:43.386Z,41
2019-04-20T09:21:11.373Z,41
2019-04-20T09:21:52.628Z,41
2019-04-20T09:22:33.902Z,41
2019-04-20T09:23:40.171Z,42
2019-04-20T09:26:04.434Z,41
2019-04-20T09:26:26.422Z,41
2019-04-20T09:26:47.320Z,42
2019-04-20T09:27:31.311Z,41
2019-04-20T09:27:47.486Z,42
2019-04-20T09:28:35.112Z,42
2019-04-20T09:29:02.700Z,42
2019-04-20T09:29:46.323Z,42
2019-04-20T09:30:37.004Z,43
2019-04-20T09:31:09.021Z,43
2019-04-20T09:31:34.942Z,44
2019-04-20T09:33:04.427Z,43
2019-04-20T09:33:22.055Z,43
2019-04-20T09:34:11.264Z,43
2019-04-20T09:34:59.476Z,42
2019-04-20T09:35:42.748Z,42
2019-04-20T09:36:08.447Z,42
2019-04-20T09:36:49.150Z,42
2019-04-20T09:37:52.842Z,42
2019-04-20T09:38:56.471Z,43
2019-04-20T09:39:20.851Z,42
2019-04-20T09:40:07.759Z,43
2019-04-20T09:42:00.305Z,43